sensor_id;sensor_type;location;lat;lon;timestamp;temperature;humidity
1686;DHT22;840;47.980;7.830;2023-12-22T00:02:17;9.50;99.90
1686;DHT22;840;47.980;7.830;2023-12-22T00:04:44;9.50;99.90
1686;DHT22;840;47.980;7.830;2023-12-22T00:07:12;9.50;99.90
1686;DHT22;840;47.980;7.830;2023-12-22T00:09:39;9.50;99.90
1686;DHT22;840;47.980;7.830;2023-12-22T00:12:06;9.50;99.90
1686;DHT22;840;47.980;7.830;2023-12-22T00:14:33;9.50;99.90
1686;DHT22;840;47.980;7.830;2023-12-22T00:16:59;9.50;99.90
1686;DHT22;840;47.980;7.830;2023-12-22T00:19:26;9.50;99.90
1686;DHT22;840;47.980;7.830;2023-12-22T00:21:53;9.50;99.90
1686;DHT22;840;47.980;7.830;2023-12-22T00:24:21;9.60;99.90
1686;DHT22;840;47.980;7.830;2023-12-22T00:26:47;9.60;99.90
1686;DHT22;840;47.980;7.830;2023-12-22T00:29:14;9.60;99.90
1686;DHT22;840;47.980;7.830;2023-12-22T00:31:41;9.60;99.90
1686;DHT22;840;47.980;7.830;2023-12-22T00:34:07;9.50;99.90
1686;DHT22;840;47.980;7.830;2023-12-22T00:36:34;9.60;99.90
1686;DHT22;840;47.980;7.830;2023-12-22T00:39:01;9.60;99.90
1686;DHT22;840;47.980;7.830;2023-12-22T00:41:30;9.60;99.90
1686;DHT22;840;47.980;7.830;2023-12-22T00:43:56;9.60;99.90
1686;DHT22;840;47.980;7.830;2023-12-22T00:46:23;9.60;99.90
1686;DHT22;840;47.980;7.830;2023-12-22T00:48:50;9.60;99.90
1686;DHT22;840;47.980;7.830;2023-12-22T00:51:16;9.60;99.90
1686;DHT22;840;47.980;7.830;2023-12-22T00:53:43;9.60;99.90
1686;DHT22;840;47.980;7.830;2023-12-22T00:56:10;9.60;99.90
1686;DHT22;840;47.980;7.830;2023-12-22T00:58:40;9.60;99.90
1686;DHT22;840;47.980;7.830;2023-12-22T01:01:06;9.60;99.90
1686;DHT22;840;47.980;7.830;2023-12-22T01:03:33;9.70;99.90
1686;DHT22;840;47.980;7.830;2023-12-22T01:06:00;9.70;99.90
1686;DHT22;840;47.980;7.830;2023-12-22T01:08:26;9.70;99.90
1686;DHT22;840;47.980;7.830;2023-12-22T01:10:53;9.70;99.90
1686;DHT22;840;47.980;7.830;2023-12-22T01:13:20;9.60;99.90
1686;DHT22;840;47.980;7.830;2023-12-22T01:15:48;9.60;99.90
1686;DHT22;840;47.980;7.830;2023-12-22T01:18:15;9.60;99.90
1686;DHT22;840;47.980;7.830;2023-12-22T01:20:41;9.60;99.90
1686;DHT22;840;47.980;7.830;2023-12-22T01:23:08;9.50;99.90
1686;DHT22;840;47.980;7.830;2023-12-22T01:25:35;9.50;99.90
1686;DHT22;840;47.980;7.830;2023-12-22T01:28:01;9.50;99.90
1686;DHT22;840;47.980;7.830;2023-12-22T01:30:28;9.60;99.90
1686;DHT22;840;47.980;7.830;2023-12-22T01:32:56;9.60;99.90
1686;DHT22;840;47.980;7.830;2023-12-22T01:35:23;9.60;99.90
1686;DHT22;840;47.980;7.830;2023-12-22T01:37:49;9.60;99.90
1686;DHT22;840;47.980;7.830;2023-12-22T01:40:16;9.60;99.90
1686;DHT22;840;47.980;7.830;2023-12-22T01:42:43;9.60;99.90
1686;DHT22;840;47.980;7.830;2023-12-22T01:45:10;9.70;99.90
1686;DHT22;840;47.980;7.830;2023-12-22T01:47:37;9.70;99.90
1686;DHT22;840;47.980;7.830;2023-12-22T01:50:07;9.70;99.90
1686;DHT22;840;47.980;7.830;2023-12-22T01:52:36;9.70;99.90
1686;DHT22;840;47.980;7.830;2023-12-22T01:55:03;9.70;99.90
1686;DHT22;840;47.980;7.830;2023-12-22T01:57:31;9.70;99.90
1686;DHT22;840;47.980;7.830;2023-12-22T01:59:57;9.70;99.90
1686;DHT22;840;47.980;7.830;2023-12-22T02:02:24;9.70;99.90
1686;DHT22;840;47.980;7.830;2023-12-22T02:04:51;9.70;99.90
1686;DHT22;840;47.980;7.830;2023-12-22T02:07:19;9.70;99.90
1686;DHT22;840;47.980;7.830;2023-12-22T02:09:47;9.70;99.90
1686;DHT22;840;47.980;7.830;2023-12-22T02:12:13;9.60;99.90
1686;DHT22;840;47.980;7.830;2023-12-22T02:14:40;9.60;99.90
1686;DHT22;840;47.980;7.830;2023-12-22T02:17:11;9.50;99.90
1686;DHT22;840;47.980;7.830;2023-12-22T02:19:41;9.50;99.90
1686;DHT22;840;47.980;7.830;2023-12-22T02:22:09;9.50;99.90
1686;DHT22;840;47.980;7.830;2023-12-22T02:24:38;9.50;99.90
1686;DHT22;840;47.980;7.830;2023-12-22T02:27:09;9.50;99.90
1686;DHT22;840;47.980;7.830;2023-12-22T02:29:46;9.50;99.90
1686;DHT22;840;47.980;7.830;2023-12-22T02:32:21;9.50;99.90
1686;DHT22;840;47.980;7.830;2023-12-22T02:34:51;9.50;99.90
1686;DHT22;840;47.980;7.830;2023-12-22T02:37:20;9.40;99.90
1686;DHT22;840;47.980;7.830;2023-12-22T02:39:51;9.40;99.90
1686;DHT22;840;47.980;7.830;2023-12-22T02:42:18;9.30;99.90
1686;DHT22;840;47.980;7.830;2023-12-22T02:44:48;9.30;99.90
1686;DHT22;840;47.980;7.830;2023-12-22T02:47:15;9.20;99.90
1686;DHT22;840;47.980;7.830;2023-12-22T02:49:42;9.20;99.90
1686;DHT22;840;47.980;7.830;2023-12-22T02:52:08;9.20;99.90
1686;DHT22;840;47.980;7.830;2023-12-22T02:54:35;9.30;99.90
1686;DHT22;840;47.980;7.830;2023-12-22T02:57:06;9.30;99.90
1686;DHT22;840;47.980;7.830;2023-12-22T02:59:33;9.40;99.90
1686;DHT22;840;47.980;7.830;2023-12-22T03:01:59;9.40;99.90
1686;DHT22;840;47.980;7.830;2023-12-22T03:04:26;9.40;99.90
1686;DHT22;840;47.980;7.830;2023-12-22T03:06:53;9.40;99.90
1686;DHT22;840;47.980;7.830;2023-12-22T03:09:19;9.40;99.90
1686;DHT22;840;47.980;7.830;2023-12-22T03:11:47;9.40;99.90
1686;DHT22;840;47.980;7.830;2023-12-22T03:14:15;9.40;99.90
1686;DHT22;840;47.980;7.830;2023-12-22T03:16:42;9.40;99.90
1686;DHT22;840;47.980;7.830;2023-12-22T03:19:08;9.40;99.90
1686;DHT22;840;47.980;7.830;2023-12-22T03:21:35;9.40;99.90
1686;DHT22;840;47.980;7.830;2023-12-22T03:24:02;9.40;99.90
1686;DHT22;840;47.980;7.830;2023-12-22T03:26:29;9.40;99.90
1686;DHT22;840;47.980;7.830;2023-12-22T03:28:55;9.40;99.90
1686;DHT22;840;47.980;7.830;2023-12-22T03:31:25;9.40;99.90
1686;DHT22;840;47.980;7.830;2023-12-22T03:33:51;9.40;99.90
1686;DHT22;840;47.980;7.830;2023-12-22T03:36:18;9.30;99.90
1686;DHT22;840;47.980;7.830;2023-12-22T03:38:45;9.30;99.90
1686;DHT22;840;47.980;7.830;2023-12-22T03:41:11;9.30;99.90
1686;DHT22;840;47.980;7.830;2023-12-22T03:43:38;9.30;99.90
1686;DHT22;840;47.980;7.830;2023-12-22T03:46:05;9.30;99.90
1686;DHT22;840;47.980;7.830;2023-12-22T03:48:33;9.30;99.90
1686;DHT22;840;47.980;7.830;2023-12-22T03:50:59;9.30;99.90
1686;DHT22;840;47.980;7.830;2023-12-22T03:53:26;9.30;99.90
1686;DHT22;840;47.980;7.830;2023-12-22T03:55:53;9.30;99.90
1686;DHT22;840;47.980;7.830;2023-12-22T03:58:19;9.20;99.90
1686;DHT22;840;47.980;7.830;2023-12-22T04:00:46;9.20;99.90
1686;DHT22;840;47.980;7.830;2023-12-22T04:03:13;9.20;99.90
1686;DHT22;840;47.980;7.830;2023-12-22T04:05:41;9.20;99.90
1686;DHT22;840;47.980;7.830;2023-12-22T04:08:08;9.10;99.90
1686;DHT22;840;47.980;7.830;2023-12-22T04:10:34;9.10;99.90
1686;DHT22;840;47.980;7.830;2023-12-22T04:13:01;9.00;99.90
1686;DHT22;840;47.980;7.830;2023-12-22T04:15:28;9.00;99.90
1686;DHT22;840;47.980;7.830;2023-12-22T04:17:54;9.00;99.90
1686;DHT22;840;47.980;7.830;2023-12-22T04:20:21;9.00;99.90
1686;DHT22;840;47.980;7.830;2023-12-22T04:22:49;9.00;99.90
1686;DHT22;840;47.980;7.830;2023-12-22T04:25:16;9.00;99.90
1686;DHT22;840;47.980;7.830;2023-12-22T04:27:43;8.90;99.90
1686;DHT22;840;47.980;7.830;2023-12-22T04:30:10;8.90;99.90
1686;DHT22;840;47.980;7.830;2023-12-22T04:32:37;8.90;99.90
1686;DHT22;840;47.980;7.830;2023-12-22T04:35:04;8.90;99.90
1686;DHT22;840;47.980;7.830;2023-12-22T04:37:31;8.90;99.90
1686;DHT22;840;47.980;7.830;2023-12-22T04:40:00;8.90;99.90
1686;DHT22;840;47.980;7.830;2023-12-22T04:42:27;8.90;99.90
1686;DHT22;840;47.980;7.830;2023-12-22T04:44:53;8.90;99.90
1686;DHT22;840;47.980;7.830;2023-12-22T04:47:20;8.90;99.90
1686;DHT22;840;47.980;7.830;2023-12-22T04:49:47;8.90;99.90
1686;DHT22;840;47.980;7.830;2023-12-22T04:52:14;8.80;99.90
1686;DHT22;840;47.980;7.830;2023-12-22T04:54:41;8.80;99.90
1686;DHT22;840;47.980;7.830;2023-12-22T04:57:09;8.80;99.90
1686;DHT22;840;47.980;7.830;2023-12-22T04:59:36;8.80;99.90
1686;DHT22;840;47.980;7.830;2023-12-22T05:02:02;8.80;99.90
1686;DHT22;840;47.980;7.830;2023-12-22T05:04:29;8.70;99.90
1686;DHT22;840;47.980;7.830;2023-12-22T05:06:56;8.70;99.90
1686;DHT22;840;47.980;7.830;2023-12-22T05:09:23;8.70;99.90
1686;DHT22;840;47.980;7.830;2023-12-22T05:11:50;8.70;99.90
1686;DHT22;840;47.980;7.830;2023-12-22T05:14:18;8.60;99.90
1686;DHT22;840;47.980;7.830;2023-12-22T05:16:45;8.60;99.90
1686;DHT22;840;47.980;7.830;2023-12-22T05:19:12;8.60;99.90
1686;DHT22;840;47.980;7.830;2023-12-22T05:21:38;8.50;99.90
1686;DHT22;840;47.980;7.830;2023-12-22T05:24:05;8.50;99.90
1686;DHT22;840;47.980;7.830;2023-12-22T05:26:32;8.50;99.90
1686;DHT22;840;47.980;7.830;2023-12-22T05:28:58;8.50;99.90
1686;DHT22;840;47.980;7.830;2023-12-22T05:31:26;8.50;99.90
1686;DHT22;840;47.980;7.830;2023-12-22T05:33:53;8.50;99.90
1686;DHT22;840;47.980;7.830;2023-12-22T05:36:21;8.50;99.90
1686;DHT22;840;47.980;7.830;2023-12-22T05:38:48;8.50;99.90
1686;DHT22;840;47.980;7.830;2023-12-22T05:41:14;8.50;99.90
1686;DHT22;840;47.980;7.830;2023-12-22T05:43:41;8.50;99.90
1686;DHT22;840;47.980;7.830;2023-12-22T05:46:08;8.50;99.90
1686;DHT22;840;47.980;7.830;2023-12-22T05:48:37;8.50;99.90
1686;DHT22;840;47.980;7.830;2023-12-22T05:51:04;8.50;99.90
1686;DHT22;840;47.980;7.830;2023-12-22T05:53:32;8.60;99.90
1686;DHT22;840;47.980;7.830;2023-12-22T05:55:59;8.60;99.90
1686;DHT22;840;47.980;7.830;2023-12-22T05:58:26;8.60;99.90
1686;DHT22;840;47.980;7.830;2023-12-22T06:00:53;8.60;99.90
1686;DHT22;840;47.980;7.830;2023-12-22T06:03:19;8.60;99.90
1686;DHT22;840;47.980;7.830;2023-12-22T06:05:47;8.60;99.90
1686;DHT22;840;47.980;7.830;2023-12-22T06:08:14;8.60;99.90
1686;DHT22;840;47.980;7.830;2023-12-22T06:10:41;8.50;99.90
1686;DHT22;840;47.980;7.830;2023-12-22T06:13:07;8.50;99.90
1686;DHT22;840;47.980;7.830;2023-12-22T06:15:34;8.50;99.90
1686;DHT22;840;47.980;7.830;2023-12-22T06:18:01;8.50;99.90
1686;DHT22;840;47.980;7.830;2023-12-22T06:20:27;8.50;99.90
1686;DHT22;840;47.980;7.830;2023-12-22T06:22:55;8.50;99.90
1686;DHT22;840;47.980;7.830;2023-12-22T06:25:22;8.50;99.90
1686;DHT22;840;47.980;7.830;2023-12-22T06:27:49;8.50;99.90
1686;DHT22;840;47.980;7.830;2023-12-22T06:30:15;8.50;99.90
1686;DHT22;840;47.980;7.830;2023-12-22T06:32:45;8.60;99.90
1686;DHT22;840;47.980;7.830;2023-12-22T06:35:13;8.60;99.90
1686;DHT22;840;47.980;7.830;2023-12-22T06:37:40;8.60;99.90
1686;DHT22;840;47.980;7.830;2023-12-22T06:40:10;8.60;99.90
1686;DHT22;840;47.980;7.830;2023-12-22T06:42:36;8.60;99.90
1686;DHT22;840;47.980;7.830;2023-12-22T06:45:04;8.60;99.90
1686;DHT22;840;47.980;7.830;2023-12-22T06:47:31;8.60;99.90
1686;DHT22;840;47.980;7.830;2023-12-22T06:49:57;8.50;99.90
1686;DHT22;840;47.980;7.830;2023-12-22T06:52:24;8.50;99.90
1686;DHT22;840;47.980;7.830;2023-12-22T06:54:51;8.50;99.90
1686;DHT22;840;47.980;7.830;2023-12-22T06:57:19;8.50;99.90
1686;DHT22;840;47.980;7.830;2023-12-22T06:59:46;8.50;99.90
1686;DHT22;840;47.980;7.830;2023-12-22T07:02:14;8.50;99.90
1686;DHT22;840;47.980;7.830;2023-12-22T07:05:03;8.50;99.90
1686;DHT22;840;47.980;7.830;2023-12-22T07:07:30;8.50;99.90
1686;DHT22;840;47.980;7.830;2023-12-22T07:09:57;8.50;99.90
1686;DHT22;840;47.980;7.830;2023-12-22T07:12:25;8.50;99.90
1686;DHT22;840;47.980;7.830;2023-12-22T07:14:52;8.60;99.90
1686;DHT22;840;47.980;7.830;2023-12-22T07:17:18;8.60;99.90
1686;DHT22;840;47.980;7.830;2023-12-22T07:19:45;8.60;99.90
1686;DHT22;840;47.980;7.830;2023-12-22T07:22:13;8.60;99.90
1686;DHT22;840;47.980;7.830;2023-12-22T07:24:40;8.60;99.90
1686;DHT22;840;47.980;7.830;2023-12-22T07:27:07;8.60;99.90
1686;DHT22;840;47.980;7.830;2023-12-22T07:29:35;8.60;99.90
1686;DHT22;840;47.980;7.830;2023-12-22T07:32:02;8.50;99.90
1686;DHT22;840;47.980;7.830;2023-12-22T07:34:29;8.50;99.90
1686;DHT22;840;47.980;7.830;2023-12-22T07:36:56;8.50;99.90
1686;DHT22;840;47.980;7.830;2023-12-22T07:39:23;8.50;99.90
1686;DHT22;840;47.980;7.830;2023-12-22T07:41:49;8.50;99.90
1686;DHT22;840;47.980;7.830;2023-12-22T07:44:16;8.50;99.90
1686;DHT22;840;47.980;7.830;2023-12-22T07:46:44;8.50;99.90
1686;DHT22;840;47.980;7.830;2023-12-22T07:49:10;8.50;99.90
1686;DHT22;840;47.980;7.830;2023-12-22T07:51:38;8.50;99.90
1686;DHT22;840;47.980;7.830;2023-12-22T07:54:04;8.50;99.90
1686;DHT22;840;47.980;7.830;2023-12-22T07:56:31;8.50;99.90
1686;DHT22;840;47.980;7.830;2023-12-22T07:58:58;8.50;99.90
1686;DHT22;840;47.980;7.830;2023-12-22T08:01:28;8.50;99.90
1686;DHT22;840;47.980;7.830;2023-12-22T08:03:56;8.50;99.90
1686;DHT22;840;47.980;7.830;2023-12-22T08:06:22;8.50;99.90
1686;DHT22;840;47.980;7.830;2023-12-22T08:08:49;8.50;99.90
1686;DHT22;840;47.980;7.830;2023-12-22T08:11:16;8.50;99.90
1686;DHT22;840;47.980;7.830;2023-12-22T08:13:45;8.50;99.90
1686;DHT22;840;47.980;7.830;2023-12-22T08:16:11;8.50;99.90
1686;DHT22;840;47.980;7.830;2023-12-22T08:18:38;8.50;99.90
1686;DHT22;840;47.980;7.830;2023-12-22T08:21:06;8.50;99.90
1686;DHT22;840;47.980;7.830;2023-12-22T08:23:33;8.50;99.90
1686;DHT22;840;47.980;7.830;2023-12-22T08:25:59;8.50;99.90
1686;DHT22;840;47.980;7.830;2023-12-22T08:28:26;8.50;99.90
1686;DHT22;840;47.980;7.830;2023-12-22T08:30:53;8.50;99.90
1686;DHT22;840;47.980;7.830;2023-12-22T08:33:19;8.50;99.90
1686;DHT22;840;47.980;7.830;2023-12-22T08:35:46;8.60;99.90
1686;DHT22;840;47.980;7.830;2023-12-22T08:38:14;8.50;99.90
1686;DHT22;840;47.980;7.830;2023-12-22T08:40:41;8.50;99.90
1686;DHT22;840;47.980;7.830;2023-12-22T08:43:08;8.60;99.90
1686;DHT22;840;47.980;7.830;2023-12-22T08:45:35;8.60;99.90
1686;DHT22;840;47.980;7.830;2023-12-22T08:48:02;8.60;99.90
1686;DHT22;840;47.980;7.830;2023-12-22T08:50:33;8.60;99.90
1686;DHT22;840;47.980;7.830;2023-12-22T08:53:00;8.60;99.90
1686;DHT22;840;47.980;7.830;2023-12-22T08:55:28;8.60;99.90
1686;DHT22;840;47.980;7.830;2023-12-22T08:57:55;8.60;99.90
1686;DHT22;840;47.980;7.830;2023-12-22T09:00:21;8.60;99.90
1686;DHT22;840;47.980;7.830;2023-12-22T09:02:48;8.60;99.90
1686;DHT22;840;47.980;7.830;2023-12-22T09:05:15;8.60;99.90
1686;DHT22;840;47.980;7.830;2023-12-22T09:07:43;8.60;99.90
1686;DHT22;840;47.980;7.830;2023-12-22T09:10:10;8.50;99.90
1686;DHT22;840;47.980;7.830;2023-12-22T09:12:39;8.50;99.90
1686;DHT22;840;47.980;7.830;2023-12-22T09:15:06;8.50;99.90
1686;DHT22;840;47.980;7.830;2023-12-22T09:17:33;8.50;99.90
1686;DHT22;840;47.980;7.830;2023-12-22T09:20:00;8.60;99.90
1686;DHT22;840;47.980;7.830;2023-12-22T09:22:26;8.60;99.90
1686;DHT22;840;47.980;7.830;2023-12-22T09:24:53;8.70;99.90
1686;DHT22;840;47.980;7.830;2023-12-22T09:27:20;8.70;99.90
1686;DHT22;840;47.980;7.830;2023-12-22T09:29:48;8.70;99.90
1686;DHT22;840;47.980;7.830;2023-12-22T09:32:14;8.70;99.90
1686;DHT22;840;47.980;7.830;2023-12-22T09:34:41;8.70;99.90
1686;DHT22;840;47.980;7.830;2023-12-22T09:37:08;8.70;99.90
1686;DHT22;840;47.980;7.830;2023-12-22T09:39:34;8.70;99.90
1686;DHT22;840;47.980;7.830;2023-12-22T09:42:01;8.70;99.90
1686;DHT22;840;47.980;7.830;2023-12-22T09:44:32;8.70;99.90
1686;DHT22;840;47.980;7.830;2023-12-22T09:47:03;8.70;99.90
1686;DHT22;840;47.980;7.830;2023-12-22T09:49:30;8.70;99.90
1686;DHT22;840;47.980;7.830;2023-12-22T09:51:57;8.70;99.90
1686;DHT22;840;47.980;7.830;2023-12-22T09:54:24;8.80;99.90
1686;DHT22;840;47.980;7.830;2023-12-22T09:56:52;8.70;99.90
1686;DHT22;840;47.980;7.830;2023-12-22T09:59:21;8.70;99.90
1686;DHT22;840;47.980;7.830;2023-12-22T10:01:50;8.80;99.90
1686;DHT22;840;47.980;7.830;2023-12-22T10:04:19;8.70;99.90
1686;DHT22;840;47.980;7.830;2023-12-22T10:06:46;8.80;99.90
1686;DHT22;840;47.980;7.830;2023-12-22T10:09:15;8.80;99.90
1686;DHT22;840;47.980;7.830;2023-12-22T10:11:44;8.80;99.90
1686;DHT22;840;47.980;7.830;2023-12-22T10:14:10;8.80;99.90
1686;DHT22;840;47.980;7.830;2023-12-22T10:16:39;8.80;99.90
1686;DHT22;840;47.980;7.830;2023-12-22T10:19:07;8.80;99.90
1686;DHT22;840;47.980;7.830;2023-12-22T10:21:36;8.90;99.90
1686;DHT22;840;47.980;7.830;2023-12-22T10:24:03;8.90;99.90
1686;DHT22;840;47.980;7.830;2023-12-22T10:26:29;8.90;99.90
1686;DHT22;840;47.980;7.830;2023-12-22T10:28:56;8.90;99.90
1686;DHT22;840;47.980;7.830;2023-12-22T10:31:23;8.90;99.90
1686;DHT22;840;47.980;7.830;2023-12-22T10:33:51;8.90;99.90
1686;DHT22;840;47.980;7.830;2023-12-22T10:36:17;8.90;99.90
1686;DHT22;840;47.980;7.830;2023-12-22T10:38:46;8.90;99.90
1686;DHT22;840;47.980;7.830;2023-12-22T10:41:13;9.00;99.90
1686;DHT22;840;47.980;7.830;2023-12-22T10:43:40;8.90;99.90
1686;DHT22;840;47.980;7.830;2023-12-22T10:46:07;9.00;99.90
1686;DHT22;840;47.980;7.830;2023-12-22T10:48:36;9.00;99.90
1686;DHT22;840;47.980;7.830;2023-12-22T10:51:03;9.00;99.90
1686;DHT22;840;47.980;7.830;2023-12-22T10:53:35;8.90;99.90
1686;DHT22;840;47.980;7.830;2023-12-22T10:56:03;8.90;99.90
1686;DHT22;840;47.980;7.830;2023-12-22T10:58:30;8.90;99.90
1686;DHT22;840;47.980;7.830;2023-12-22T11:00:58;8.90;99.90
1686;DHT22;840;47.980;7.830;2023-12-22T11:03:26;9.00;99.90
1686;DHT22;840;47.980;7.830;2023-12-22T11:05:57;9.00;99.90
1686;DHT22;840;47.980;7.830;2023-12-22T11:08:25;8.90;99.90
1686;DHT22;840;47.980;7.830;2023-12-22T11:10:57;8.90;99.90
1686;DHT22;840;47.980;7.830;2023-12-22T11:13:26;8.90;99.90
1686;DHT22;840;47.980;7.830;2023-12-22T11:15:53;9.00;99.90
1686;DHT22;840;47.980;7.830;2023-12-22T11:18:21;9.00;99.90
1686;DHT22;840;47.980;7.830;2023-12-22T11:20:50;9.00;99.90
1686;DHT22;840;47.980;7.830;2023-12-22T11:23:18;9.00;99.90
1686;DHT22;840;47.980;7.830;2023-12-22T11:25:48;9.00;99.90
1686;DHT22;840;47.980;7.830;2023-12-22T11:28:19;9.00;99.90
1686;DHT22;840;47.980;7.830;2023-12-22T11:30:49;9.10;99.90
1686;DHT22;840;47.980;7.830;2023-12-22T11:33:18;9.10;99.90
1686;DHT22;840;47.980;7.830;2023-12-22T11:35:46;9.10;99.90
1686;DHT22;840;47.980;7.830;2023-12-22T11:38:13;9.10;99.90
1686;DHT22;840;47.980;7.830;2023-12-22T11:40:40;9.10;99.90
1686;DHT22;840;47.980;7.830;2023-12-22T11:43:07;9.10;99.90
1686;DHT22;840;47.980;7.830;2023-12-22T11:45:34;9.20;99.90
1686;DHT22;840;47.980;7.830;2023-12-22T11:48:11;9.20;99.90
1686;DHT22;840;47.980;7.830;2023-12-22T11:50:39;9.20;99.90
1686;DHT22;840;47.980;7.830;2023-12-22T11:53:29;9.20;99.90
1686;DHT22;840;47.980;7.830;2023-12-22T11:55:59;9.20;99.90
1686;DHT22;840;47.980;7.830;2023-12-22T11:58:38;9.30;99.90
1686;DHT22;840;47.980;7.830;2023-12-22T12:01:06;9.30;99.90
1686;DHT22;840;47.980;7.830;2023-12-22T12:03:36;9.30;99.90
1686;DHT22;840;47.980;7.830;2023-12-22T12:06:31;9.30;99.90
1686;DHT22;840;47.980;7.830;2023-12-22T12:08:59;9.40;99.90
1686;DHT22;840;47.980;7.830;2023-12-22T12:12:11;9.40;99.90
1686;DHT22;840;47.980;7.830;2023-12-22T12:14:41;9.40;99.90
1686;DHT22;840;47.980;7.830;2023-12-22T12:17:09;9.50;99.90
1686;DHT22;840;47.980;7.830;2023-12-22T12:19:37;9.50;99.90
1686;DHT22;840;47.980;7.830;2023-12-22T12:22:04;9.60;99.90
1686;DHT22;840;47.980;7.830;2023-12-22T12:24:31;9.60;99.90
1686;DHT22;840;47.980;7.830;2023-12-22T12:26:58;9.60;99.90
1686;DHT22;840;47.980;7.830;2023-12-22T12:29:25;9.60;99.90
1686;DHT22;840;47.980;7.830;2023-12-22T12:31:51;9.60;99.90
1686;DHT22;840;47.980;7.830;2023-12-22T12:34:18;9.70;99.90
1686;DHT22;840;47.980;7.830;2023-12-22T12:36:48;9.70;99.90
1686;DHT22;840;47.980;7.830;2023-12-22T12:39:15;9.70;99.90
1686;DHT22;840;47.980;7.830;2023-12-22T12:41:49;9.70;99.90
1686;DHT22;840;47.980;7.830;2023-12-22T12:44:20;9.70;99.90
1686;DHT22;840;47.980;7.830;2023-12-22T12:46:48;9.70;99.90
1686;DHT22;840;47.980;7.830;2023-12-22T12:49:15;9.70;99.90
1686;DHT22;840;47.980;7.830;2023-12-22T12:51:44;9.80;99.90
1686;DHT22;840;47.980;7.830;2023-12-22T12:54:17;9.80;99.90
1686;DHT22;840;47.980;7.830;2023-12-22T12:56:51;9.80;99.90
1686;DHT22;840;47.980;7.830;2023-12-22T12:59:18;9.80;99.90
1686;DHT22;840;47.980;7.830;2023-12-22T13:01:46;9.80;99.90
1686;DHT22;840;47.980;7.830;2023-12-22T13:04:13;9.80;99.90
1686;DHT22;840;47.980;7.830;2023-12-22T13:06:44;9.80;99.90
1686;DHT22;840;47.980;7.830;2023-12-22T13:09:12;9.80;99.90
1686;DHT22;840;47.980;7.830;2023-12-22T13:11:40;9.80;99.90
1686;DHT22;840;47.980;7.830;2023-12-22T13:14:07;9.80;99.90
1686;DHT22;840;47.980;7.830;2023-12-22T13:16:34;9.80;99.90
1686;DHT22;840;47.980;7.830;2023-12-22T13:19:01;9.70;99.90
1686;DHT22;840;47.980;7.830;2023-12-22T13:21:29;9.70;99.90
1686;DHT22;840;47.980;7.830;2023-12-22T13:24:08;9.70;99.90
1686;DHT22;840;47.980;7.830;2023-12-22T13:26:36;9.70;99.90
1686;DHT22;840;47.980;7.830;2023-12-22T13:29:03;9.70;99.90
1686;DHT22;840;47.980;7.830;2023-12-22T13:31:30;9.80;99.90
1686;DHT22;840;47.980;7.830;2023-12-22T13:33:58;9.80;99.90
1686;DHT22;840;47.980;7.830;2023-12-22T13:36:25;9.80;99.90
1686;DHT22;840;47.980;7.830;2023-12-22T13:38:52;9.80;99.90
1686;DHT22;840;47.980;7.830;2023-12-22T13:41:19;9.80;99.90
1686;DHT22;840;47.980;7.830;2023-12-22T13:43:47;9.80;99.90
1686;DHT22;840;47.980;7.830;2023-12-22T13:46:14;9.80;99.90
1686;DHT22;840;47.980;7.830;2023-12-22T13:48:41;9.80;99.90
1686;DHT22;840;47.980;7.830;2023-12-22T13:51:08;9.80;99.90
1686;DHT22;840;47.980;7.830;2023-12-22T13:53:35;9.80;99.90
1686;DHT22;840;47.980;7.830;2023-12-22T13:56:02;9.70;99.90
1686;DHT22;840;47.980;7.830;2023-12-22T13:58:29;9.70;99.90
1686;DHT22;840;47.980;7.830;2023-12-22T14:00:57;9.70;99.90
1686;DHT22;840;47.980;7.830;2023-12-22T14:03:23;9.70;99.90
1686;DHT22;840;47.980;7.830;2023-12-22T14:05:52;9.70;99.90
1686;DHT22;840;47.980;7.830;2023-12-22T14:08:21;9.70;99.90
1686;DHT22;840;47.980;7.830;2023-12-22T14:10:48;9.70;99.90
1686;DHT22;840;47.980;7.830;2023-12-22T14:13:15;9.70;99.90
1686;DHT22;840;47.980;7.830;2023-12-22T14:15:42;9.70;99.90
1686;DHT22;840;47.980;7.830;2023-12-22T14:18:11;9.70;99.90
1686;DHT22;840;47.980;7.830;2023-12-22T14:20:37;9.70;99.90
1686;DHT22;840;47.980;7.830;2023-12-22T14:23:04;9.70;99.90
1686;DHT22;840;47.980;7.830;2023-12-22T14:25:31;9.70;99.90
1686;DHT22;840;47.980;7.830;2023-12-22T14:27:58;9.70;99.90
1686;DHT22;840;47.980;7.830;2023-12-22T14:30:24;9.70;99.90
1686;DHT22;840;47.980;7.830;2023-12-22T14:32:51;9.70;99.90
1686;DHT22;840;47.980;7.830;2023-12-22T14:35:20;9.70;99.90
1686;DHT22;840;47.980;7.830;2023-12-22T14:37:46;9.70;99.90
1686;DHT22;840;47.980;7.830;2023-12-22T14:40:13;9.70;99.90
1686;DHT22;840;47.980;7.830;2023-12-22T14:42:40;9.70;99.90
1686;DHT22;840;47.980;7.830;2023-12-22T14:45:07;9.70;99.90
1686;DHT22;840;47.980;7.830;2023-12-22T14:47:34;9.70;99.90
1686;DHT22;840;47.980;7.830;2023-12-22T14:50:01;9.70;99.90
1686;DHT22;840;47.980;7.830;2023-12-22T14:52:30;9.70;99.90
1686;DHT22;840;47.980;7.830;2023-12-22T14:54:58;9.80;99.90
1686;DHT22;840;47.980;7.830;2023-12-22T14:57:25;9.80;99.90
1686;DHT22;840;47.980;7.830;2023-12-22T14:59:51;9.70;99.90
1686;DHT22;840;47.980;7.830;2023-12-22T15:02:18;9.70;99.90
1686;DHT22;840;47.980;7.830;2023-12-22T15:04:45;9.80;99.90
1686;DHT22;840;47.980;7.830;2023-12-22T15:07:14;9.70;99.90
1686;DHT22;840;47.980;7.830;2023-12-22T15:09:43;9.80;99.90
1686;DHT22;840;47.980;7.830;2023-12-22T15:12:10;9.80;99.90
1686;DHT22;840;47.980;7.830;2023-12-22T15:14:36;9.80;99.90
1686;DHT22;840;47.980;7.830;2023-12-22T15:17:03;9.80;99.90
1686;DHT22;840;47.980;7.830;2023-12-22T15:19:30;9.80;99.90
1686;DHT22;840;47.980;7.830;2023-12-22T15:21:56;9.80;99.90
1686;DHT22;840;47.980;7.830;2023-12-22T15:24:23;9.80;99.90
1686;DHT22;840;47.980;7.830;2023-12-22T15:26:53;9.80;99.90
1686;DHT22;840;47.980;7.830;2023-12-22T15:29:19;9.80;99.90
1686;DHT22;840;47.980;7.830;2023-12-22T15:31:47;9.80;99.90
1686;DHT22;840;47.980;7.830;2023-12-22T15:34:14;9.80;99.90
1686;DHT22;840;47.980;7.830;2023-12-22T15:36:41;9.80;99.90
1686;DHT22;840;47.980;7.830;2023-12-22T15:39:08;9.80;99.90
1686;DHT22;840;47.980;7.830;2023-12-22T15:41:34;9.80;99.90
1686;DHT22;840;47.980;7.830;2023-12-22T15:44:03;9.80;99.90
1686;DHT22;840;47.980;7.830;2023-12-22T15:46:29;9.80;99.90
1686;DHT22;840;47.980;7.830;2023-12-22T15:48:56;9.80;99.90
1686;DHT22;840;47.980;7.830;2023-12-22T15:51:23;9.80;99.90
1686;DHT22;840;47.980;7.830;2023-12-22T15:53:50;9.80;99.90
1686;DHT22;840;47.980;7.830;2023-12-22T15:56:16;9.80;99.90
1686;DHT22;840;47.980;7.830;2023-12-22T15:58:44;9.80;99.90
1686;DHT22;840;47.980;7.830;2023-12-22T16:01:12;9.80;99.90
1686;DHT22;840;47.980;7.830;2023-12-22T16:03:40;9.80;99.90
1686;DHT22;840;47.980;7.830;2023-12-22T16:06:07;9.80;99.90
1686;DHT22;840;47.980;7.830;2023-12-22T16:08:34;9.80;99.90
1686;DHT22;840;47.980;7.830;2023-12-22T16:11:01;9.80;99.90
1686;DHT22;840;47.980;7.830;2023-12-22T16:13:27;9.80;99.90
1686;DHT22;840;47.980;7.830;2023-12-22T16:15:55;9.80;99.90
1686;DHT22;840;47.980;7.830;2023-12-22T16:18:23;9.70;99.90
1686;DHT22;840;47.980;7.830;2023-12-22T16:20:50;9.70;99.90
1686;DHT22;840;47.980;7.830;2023-12-22T16:23:16;9.70;99.90
1686;DHT22;840;47.980;7.830;2023-12-22T16:25:47;9.70;99.90
1686;DHT22;840;47.980;7.830;2023-12-22T16:28:16;9.70;99.90
1686;DHT22;840;47.980;7.830;2023-12-22T16:30:43;9.70;99.90
1686;DHT22;840;47.980;7.830;2023-12-22T16:33:09;9.80;99.90
1686;DHT22;840;47.980;7.830;2023-12-22T16:35:37;9.70;99.90
1686;DHT22;840;47.980;7.830;2023-12-22T16:38:05;9.80;99.90